FredonyerEastRWIS Atmospheric Data: 07/12/2019 Summary  Detailed Graphs  Station List

  Temperature     Wind Precipitation Visibility
Timestamp Air Wet
Bulb
Dew-
point
24-hr
Max
24-hr
Min
Relative
Humidity
Atmospheric
Pressure
Avg
Speed
Avg
Dir
Spot
Speed
Spot
Dir
Max
Speed
Max
Dir
  Rate Situation Start End 1 hr 3 hr 6 hr 12 hr 24 hr   Situation
Date Time °F °F °F °F °F % in Hg mph ° mph ° mph ° Y/N in/hr text Date Time Date Time in in in in in mi text
07/12/2019 12:09 AM 56.66 50.72 45.68 83.12 47.30 66.0 Not Reported 1.57 NW 1.57 NW 0.89 N No 0.000 No Precipitation 07/07/2019 05:02 PM 07/07/2019 05:07 PM 0.000 0.000 0.000 0.000 0.000 Not Reported Not Reported
07/12/2019 12:23 AM 56.30 50.72 46.04 83.12 47.30 68.0 Not Reported 1.12 SW 1.12 W 2.01 NW No 0.000 No Precipitation 07/07/2019 05:02 PM 07/07/2019 05:07 PM 0.000 0.000 0.000 0.000 0.000 Not Reported Not Reported
07/12/2019 12:39 AM 55.76 50.36 45.86 83.12 47.30 69.0 Not Reported 0.00 N 0.00 S 1.57 SW No 0.000 No Precipitation 07/07/2019 05:02 PM 07/07/2019 05:07 PM 0.000 0.000 0.000 0.000 0.000 Not Reported Not Reported
07/12/2019 12:55 AM 54.68 49.82 45.68 83.12 47.30 71.0 Not Reported 0.22 N 0.89 NW 0.67 NW No 0.000 No Precipitation 07/07/2019 05:02 PM 07/07/2019 05:07 PM 0.000 0.000 0.000 0.000 0.000 Not Reported Not Reported
07/12/2019 01:08 AM 54.86 50.00 45.68 83.12 47.30 71.0 Not Reported 0.67 N 0.00 N 1.34 NW No 0.000 No Precipitation 07/07/2019 05:02 PM 07/07/2019 05:07 PM 0.000 0.000 0.000 0.000 0.000 Not Reported Not Reported
07/12/2019 01:23 AM 54.68 50.00 45.86 83.12 47.30 72.0 Not Reported 1.79 NW 1.79 NW 2.46 NW No 0.000 No Precipitation 07/07/2019 05:02 PM 07/07/2019 05:07 PM 0.000 0.000 0.000 0.000 0.000 Not Reported Not Reported
07/12/2019 01:38 AM 54.32 50.00 46.40 83.12 47.30 74.0 Not Reported 0.22 W 0.00 W 2.46 NW No 0.000 No Precipitation 07/07/2019 05:02 PM 07/07/2019 05:07 PM 0.000 0.000 0.000 0.000 0.000 Not Reported Not Reported
07/12/2019 01:55 AM 53.42 49.64 46.04 83.12 47.30 75.0 Not Reported 0.89 S 0.00 NE 0.67 S No 0.000 No Precipitation 07/07/2019 05:02 PM 07/07/2019 05:07 PM 0.000 0.000 0.000 0.000 0.000 Not Reported Not Reported
07/12/2019 02:09 AM 52.88 49.10 45.86 83.12 47.30 76.0 Not Reported 0.00 N 0.00 NE 1.34 S No 0.000 No Precipitation 07/07/2019 05:02 PM 07/07/2019 05:07 PM 0.000 0.000 0.000 0.000 0.000 Not Reported Not Reported
07/12/2019 02:24 AM 52.52 48.92 45.86 83.12 47.30 78.0 Not Reported 0.00 N 0.00 NW 1.12 NW No 0.000 No Precipitation 07/07/2019 05:02 PM 07/07/2019 05:07 PM 0.000 0.000 0.000 0.000 0.000 Not Reported Not Reported
07/12/2019 02:38 AM 51.98 48.74 45.86 83.12 47.30 79.0 Not Reported 0.00 NW 0.00 NW 0.89 NW No 0.000 No Precipitation 07/07/2019 05:02 PM 07/07/2019 05:07 PM 0.000 0.000 0.000 0.000 0.000 Not Reported Not Reported
07/12/2019 02:53 AM 51.26 48.38 45.50 83.12 47.30 80.0 Not Reported 0.22 E 0.67 N 0.00 E No 0.000 No Precipitation 07/07/2019 05:02 PM 07/07/2019 05:07 PM 0.000 0.000 0.000 0.000 0.000 Not Reported Not Reported
07/12/2019 03:10 AM 51.26 48.20 45.32 83.12 47.30 79.0 Not Reported 0.00 N 0.00 N 1.12 NW No 0.000 No Precipitation 07/07/2019 05:02 PM 07/07/2019 05:07 PM 0.000 0.000 0.000 0.000 0.000 Not Reported Not Reported
07/12/2019 03:24 AM 51.08 48.20 46.04 83.12 47.30 82.0 Not Reported 0.00 N 0.00 NW 0.67 NW No 0.000 No Precipitation 07/07/2019 05:02 PM 07/07/2019 05:07 PM 0.000 0.000 0.000 0.000 0.000 Not Reported Not Reported
07/12/2019 03:38 AM 50.54 47.84 45.50 83.12 47.30 82.0 Not Reported 0.00 N 0.00 NW 0.67 NW No 0.000 No Precipitation 07/07/2019 05:02 PM 07/07/2019 05:07 PM 0.000 0.000 0.000 0.000 0.000 Not Reported Not Reported
07/12/2019 03:55 AM 50.00 47.66 45.50 83.12 47.30 84.0 Not Reported 1.12 NW 0.89 NW 0.00 NW No 0.000 No Precipitation 07/07/2019 05:02 PM 07/07/2019 05:07 PM 0.000 0.000 0.000 0.000 0.000 Not Reported Not Reported
07/12/2019 04:09 AM 49.64 47.48 45.50 83.12 47.30 85.0 Not Reported 0.00 N 0.00 NW 1.34 NW No 0.000 No Precipitation 07/07/2019 05:02 PM 07/07/2019 05:07 PM 0.000 0.000 0.000 0.000 0.000 Not Reported Not Reported
07/12/2019 04:23 AM 49.64 47.30 45.32 83.12 47.30 85.0 Not Reported 0.00 N 0.00 NW 0.00 NW No 0.000 No Precipitation 07/07/2019 05:02 PM 07/07/2019 05:07 PM 0.000 0.000 0.000 0.000 0.000 Not Reported Not Reported
07/12/2019 04:38 AM 49.46 47.12 45.14 83.12 47.30 84.0 Not Reported 0.00 N 0.00 NW 0.00 NW No 0.000 No Precipitation 07/07/2019 05:02 PM 07/07/2019 05:07 PM 0.000 0.000 0.000 0.000 0.000 Not Reported Not Reported
07/12/2019 04:55 AM 49.10 47.12 44.78 83.12 47.30 84.0 Not Reported 0.00 N 0.00 NW 1.57 NW No 0.000 No Precipitation 07/07/2019 05:02 PM 07/07/2019 05:07 PM 0.000 0.000 0.000 0.000 0.000 Not Reported Not Reported
07/12/2019 05:08 AM 49.10 46.94 44.96 83.12 47.30 85.0 Not Reported 0.89 NW 0.89 NW 0.67 S No 0.000 No Precipitation 07/07/2019 05:02 PM 07/07/2019 05:07 PM 0.000 0.000 0.000 0.000 0.000 Not Reported Not Reported
07/12/2019 05:25 AM 49.46 46.94 44.60 83.12 47.30 84.0 Not Reported 1.12 W 0.22 W 2.24 NW No 0.000 No Precipitation 07/07/2019 05:02 PM 07/07/2019 05:07 PM 0.000 0.000 0.000 0.000 0.000 Not Reported Not Reported
07/12/2019 05:38 AM 49.28 46.76 44.42 83.12 47.30 83.0 Not Reported 0.67 NW 0.00 NW 2.01 W No 0.000 No Precipitation 07/07/2019 05:02 PM 07/07/2019 05:07 PM 0.000 0.000 0.000 0.000 0.000 Not Reported Not Reported
07/12/2019 05:53 AM 49.28 46.76 44.24 83.12 47.30 82.0 Not Reported 2.24 NW 1.34 NW 2.68 NW No 0.000 No Precipitation 07/07/2019 05:02 PM 07/07/2019 05:07 PM 0.000 0.000 0.000 0.000 0.000 Not Reported Not Reported
07/12/2019 06:08 AM 49.10 46.40 43.70 83.12 47.30 81.0 Not Reported 0.22 N 0.00 N 2.68 NW No 0.000 No Precipitation 07/07/2019 05:02 PM 07/07/2019 05:07 PM 0.000 0.000 0.000 0.000 0.000 Not Reported Not Reported
07/12/2019 06:24 AM 48.56 45.86 43.16 83.12 47.30 82.0 Not Reported 0.00 N 0.00 NW 0.67 NW No 0.000 No Precipitation 07/07/2019 05:02 PM 07/07/2019 05:07 PM 0.000 0.000 0.000 0.000 0.000 Not Reported Not Reported
07/12/2019 06:39 AM 47.66 45.50 43.34 83.12 47.30 84.0 Not Reported 0.00 N 0.00 NW 0.00 NW No 0.000 No Precipitation 07/07/2019 05:02 PM 07/07/2019 05:07 PM 0.000 0.000 0.000 0.000 0.000 Not Reported Not Reported
07/12/2019 06:53 AM 47.30 44.96 42.62 83.12 47.30 83.0 Not Reported 0.00 N 0.00 NW 0.89 NW No 0.000 No Precipitation 07/07/2019 05:02 PM 07/07/2019 05:07 PM 0.000 0.000 0.000 0.000 0.000 Not Reported Not Reported
07/12/2019 07:08 AM 47.12 44.96 42.80 83.12 47.12 84.0 Not Reported 0.00 N 0.00 NW 0.00 NW No 0.000 No Precipitation 07/07/2019 05:02 PM 07/07/2019 05:07 PM 0.000 0.000 0.000 0.000 0.000 Not Reported Not Reported
07/12/2019 07:23 AM 47.12 45.32 43.52 83.12 46.94 86.0 Not Reported 0.00 N 0.00 NW 0.00 NW No 0.000 No Precipitation 07/07/2019 05:02 PM 07/07/2019 05:07 PM 0.000 0.000 0.000 0.000 0.000 Not Reported Not Reported
07/12/2019 07:39 AM 47.84 46.04 44.24 83.12 46.94 87.0 Not Reported 0.00 N 0.00 NW 0.89 NW No 0.000 No Precipitation 07/07/2019 05:02 PM 07/07/2019 05:07 PM 0.000 0.000 0.000 0.000 0.000 Not Reported Not Reported
07/12/2019 07:53 AM 49.28 47.30 45.50 83.12 46.94 86.0 Not Reported 0.00 N 0.67 N 0.00 NW No 0.000 No Precipitation 07/07/2019 05:02 PM 07/07/2019 05:07 PM 0.000 0.000 0.000 0.000 0.000 Not Reported Not Reported
07/12/2019 08:08 AM 51.80 48.56 45.68 83.12 46.94 79.0 Not Reported 0.00 N 0.00 NE 0.89 E No 0.000 No Precipitation 07/07/2019 05:02 PM 07/07/2019 05:07 PM 0.000 0.000 0.000 0.000 0.000 Not Reported Not Reported
07/12/2019 08:23 AM 53.96 50.36 47.12 83.12 46.94 77.0 Not Reported 0.00 N 0.00 SE 0.00 S No 0.000 No Precipitation 07/07/2019 05:02 PM 07/07/2019 05:07 PM 0.000 0.000 0.000 0.000 0.000 Not Reported Not Reported
07/12/2019 08:38 AM 59.72 53.24 48.02 83.12 46.94 64.0 Not Reported 1.12 S 0.67 S 0.67 SE No 0.000 No Precipitation 07/07/2019 05:02 PM 07/07/2019 05:07 PM 0.000 0.000 0.000 0.000 0.000 Not Reported Not Reported
07/12/2019 08:53 AM 60.44 53.78 48.38 83.12 46.94 64.0 Not Reported 0.89 SE 0.67 S 2.01 S No 0.000 No Precipitation 07/07/2019 05:02 PM 07/07/2019 05:07 PM 0.000 0.000 0.000 0.000 0.000 Not Reported Not Reported
07/12/2019 09:08 AM 63.32 55.04 48.56 83.12 46.94 58.0 Not Reported 1.57 S 1.57 S 1.79 S No 0.000 No Precipitation 07/07/2019 05:02 PM 07/07/2019 05:07 PM 0.000 0.000 0.000 0.000 0.000 Not Reported Not Reported
07/12/2019 09:25 AM 64.22 54.68 47.12 83.12 46.94 53.0 Not Reported 1.34 SE 1.79 SE 2.46 S No 0.000 No Precipitation 07/07/2019 05:02 PM 07/07/2019 05:07 PM 0.000 0.000 0.000 0.000 0.000 Not Reported Not Reported
07/12/2019 09:39 AM 66.74 56.12 47.84 83.12 46.94 50.0 Not Reported 0.45 SE 1.12 NE 2.68 SE No 0.000 No Precipitation 07/07/2019 05:02 PM 07/07/2019 05:07 PM 0.000 0.000 0.000 0.000 0.000 Not Reported Not Reported
07/12/2019 09:53 AM 68.90 57.02 48.02 83.12 46.94 47.0 Not Reported 1.34 NE 1.12 SE 2.24 SE No 0.000 No Precipitation 07/07/2019 05:02 PM 07/07/2019 05:07 PM 0.000 0.000 0.000 0.000 0.000 Not Reported Not Reported
07/12/2019 10:09 AM 71.78 57.20 45.68 83.12 46.94 39.0 Not Reported 0.22 E 1.57 S 2.01 NE No 0.000 No Precipitation 07/07/2019 05:02 PM 07/07/2019 05:07 PM 0.000 0.000 0.000 0.000 0.000 Not Reported Not Reported
07/12/2019 10:23 AM 71.60 56.48 44.06 83.12 46.94 37.0 Not Reported 3.13 SE 2.91 SE 5.14 SE No 0.000 No Precipitation 07/07/2019 05:02 PM 07/07/2019 05:07 PM 0.000 0.000 0.000 0.000 0.000 Not Reported Not Reported
07/12/2019 10:39 AM 73.04 56.84 43.52 83.12 46.94 34.0 Not Reported 3.13 SE 2.91 SE 4.70 SE No 0.000 No Precipitation 07/07/2019 05:02 PM 07/07/2019 05:07 PM 0.000 0.000 0.000 0.000 0.000 Not Reported Not Reported
07/12/2019 10:55 AM 74.48 57.02 42.62 83.12 46.94 31.0 Not Reported 2.01 SE 1.57 N 5.82 SE No 0.000 No Precipitation 07/07/2019 05:02 PM 07/07/2019 05:07 PM 0.000 0.000 0.000 0.000 0.000 Not Reported Not Reported
07/12/2019 11:08 AM 75.20 57.56 43.16 83.12 46.94 31.0 Not Reported 2.24 E 0.89 SE 5.59 S No 0.000 No Precipitation 07/07/2019 05:02 PM 07/07/2019 05:07 PM 0.000 0.000 0.000 0.000 0.000 Not Reported Not Reported
07/12/2019 11:23 AM 75.92 57.92 43.70 83.12 46.94 31.0 Not Reported 1.79 SE 2.46 E 4.47 SE No 0.000 No Precipitation 07/07/2019 05:02 PM 07/07/2019 05:07 PM 0.000 0.000 0.000 0.000 0.000 Not Reported Not Reported
07/12/2019 11:38 AM 76.10 57.92 43.52 83.12 46.94 31.0 Not Reported 2.46 SE 3.80 S 4.25 SE No 0.000 No Precipitation 07/07/2019 05:02 PM 07/07/2019 05:07 PM 0.000 0.000 0.000 0.000 0.000 Not Reported Not Reported
07/12/2019 11:53 AM 78.98 59.36 44.42 83.12 46.94 29.0 Not Reported 2.24 NE 1.79 E 5.59 SE No 0.000 No Precipitation 07/07/2019 05:02 PM 07/07/2019 05:07 PM 0.000 0.000 0.000 0.000 0.000 Not Reported Not Reported
07/12/2019 12:09 PM 78.44 57.56 41.00 83.12 46.94 26.0 Not Reported 2.91 SW 8.50 NW 8.95 W No 0.000 No Precipitation 07/07/2019 05:02 PM 07/07/2019 05:07 PM 0.000 0.000 0.000 0.000 0.000 Not Reported Not Reported
07/12/2019 12:24 PM 78.98 57.92 41.00 83.12 46.94 25.0 Not Reported 8.05 NW 6.26 NW 8.50 W No 0.000 No Precipitation 07/07/2019 05:02 PM 07/07/2019 05:07 PM 0.000 0.000 0.000 0.000 0.000 Not Reported Not Reported
07/12/2019 12:38 PM 79.16 58.10 40.82 83.12 46.94 25.0 Not Reported 4.47 SW 4.92 W 9.62 NW No 0.000 No Precipitation 07/07/2019 05:02 PM 07/07/2019 05:07 PM 0.000 0.000 0.000 0.000 0.000 Not Reported Not Reported
07/12/2019 12:54 PM 80.78 57.74 37.76 83.12 46.94 21.0 Not Reported 2.91 S 2.46 SE 8.05 SE No 0.000 No Precipitation 07/07/2019 05:02 PM 07/07/2019 05:07 PM 0.000 0.000 0.000 0.000 0.000 Not Reported Not Reported
07/12/2019 01:08 PM 80.06 58.28 40.28 83.12 46.94 24.0 Not Reported 4.70 S 3.36 SW 8.05 SW No 0.000 No Precipitation 07/07/2019 05:02 PM 07/07/2019 05:07 PM 0.000 0.000 0.000 0.000 0.000 Not Reported Not Reported
07/12/2019 01:23 PM 80.06 58.28 40.28 83.12 46.94 24.0 Not Reported 4.70 NW 8.05 N 7.61 W No 0.000 No Precipitation 07/07/2019 05:02 PM 07/07/2019 05:07 PM 0.000 0.000 0.000 0.000 0.000 Not Reported Not Reported
07/12/2019 01:39 PM 80.60 57.74 39.20 83.12 46.94 21.0 Not Reported 4.47 NW 8.50 W 10.74 NW No 0.000 No Precipitation 07/07/2019 05:02 PM 07/07/2019 05:07 PM 0.000 0.000 0.000 0.000 0.000 Not Reported Not Reported
07/12/2019 01:53 PM 81.32 58.10 37.76 83.12 46.94 21.0 Not Reported 5.59 NW 4.47 SW 10.51 W No 0.000 No Precipitation 07/07/2019 05:02 PM 07/07/2019 05:07 PM 0.000 0.000 0.000 0.000 0.000 Not Reported Not Reported
07/12/2019 02:08 PM 82.58 58.46 37.58 83.12 46.94 20.0 Not Reported 3.58 W 2.68 N 11.86 NW No 0.000 No Precipitation 07/07/2019 05:02 PM 07/07/2019 05:07 PM 0.000 0.000 0.000 0.000 0.000 Not Reported Not Reported
07/12/2019 02:25 PM 82.04 58.28 37.58 83.48 46.94 20.0 Not Reported 6.71 S 4.47 W 9.62 NW No 0.000 No Precipitation 07/07/2019 05:02 PM 07/07/2019 05:07 PM 0.000 0.000 0.000 0.000 0.000 Not Reported Not Reported
07/12/2019 02:38 PM 83.48 58.28 36.32 83.84 46.94 18.0 Not Reported 2.24 W 3.13 W 11.18 NW No 0.000 No Precipitation 07/07/2019 05:02 PM 07/07/2019 05:07 PM 0.000 0.000 0.000 0.000 0.000 Not Reported Not Reported
07/12/2019 02:54 PM 83.12 57.92 35.06 84.20 46.94 18.0 Not Reported 6.71 S 5.37 SE 10.96 S No 0.000 No Precipitation 07/07/2019 05:02 PM 07/07/2019 05:07 PM 0.000 0.000 0.000 0.000 0.000 Not Reported Not Reported
07/12/2019 03:09 PM 83.84 58.64 37.04 84.38 46.94 18.0 Not Reported 5.37 SW 3.58 SE 9.62 S No 0.000 No Precipitation 07/07/2019 05:02 PM 07/07/2019 05:07 PM 0.000 0.000 0.000 0.000 0.000 Not Reported Not Reported
07/12/2019 03:23 PM 83.84 59.00 37.94 85.10 46.94 19.0 Not Reported 5.59 S 4.25 W 10.51 NW No 0.000 No Precipitation 07/07/2019 05:02 PM 07/07/2019 05:07 PM 0.000 0.000 0.000 0.000 0.000 Not Reported Not Reported
07/12/2019 03:40 PM 82.04 58.10 37.22 85.10 46.94 20.0 Not Reported 7.61 SW 7.38 SW 9.62 S No 0.000 No Precipitation 07/07/2019 05:02 PM 07/07/2019 05:07 PM 0.000 0.000 0.000 0.000 0.000 Not Reported Not Reported
07/12/2019 03:53 PM 83.48 58.64 37.04 85.10 46.94 19.0 Not Reported 7.16 SW 7.83 W 10.51 SW No 0.000 No Precipitation 07/07/2019 05:02 PM 07/07/2019 05:07 PM 0.000 0.000 0.000 0.000 0.000 Not Reported Not Reported
07/12/2019 04:09 PM 82.94 57.74 34.70 85.10 46.94 17.0 Not Reported 7.83 SW 8.28 W 11.18 SW No 0.000 No Precipitation 07/07/2019 05:02 PM 07/07/2019 05:07 PM 0.000 0.000 0.000 0.000 0.000 Not Reported Not Reported
07/12/2019 04:25 PM 84.20 59.00 37.40 85.10 46.94 18.0 Not Reported 4.25 S 2.24 NW 9.84 W No 0.000 No Precipitation 07/07/2019 05:02 PM 07/07/2019 05:07 PM 0.000 0.000 0.000 0.000 0.000 Not Reported Not Reported
07/12/2019 04:39 PM 84.02 59.90 40.10 85.10 46.94 21.0 Not Reported 3.13 SW 3.80 SE 9.62 W No 0.000 No Precipitation 07/07/2019 05:02 PM 07/07/2019 05:07 PM 0.000 0.000 0.000 0.000 0.000 Not Reported Not Reported
07/12/2019 04:54 PM 83.48 58.64 37.40 85.64 46.94 19.0 Not Reported 5.14 W 8.05 NW 9.62 NW No 0.000 No Precipitation 07/07/2019 05:02 PM 07/07/2019 05:07 PM 0.000 0.000 0.000 0.000 0.000 Not Reported Not Reported
07/12/2019 05:08 PM 84.20 58.46 35.60 85.64 46.94 17.0 Not Reported 3.80 NW 1.79 NW 8.95 NW No 0.000 No Precipitation 07/07/2019 05:02 PM 07/07/2019 05:07 PM 0.000 0.000 0.000 0.000 0.000 Not Reported Not Reported
07/12/2019 05:23 PM 84.02 58.64 36.14 85.64 46.94 18.0 Not Reported 2.68 NW 4.70 N 9.62 S No 0.000 No Precipitation 07/07/2019 05:02 PM 07/07/2019 05:07 PM 0.000 0.000 0.000 0.000 0.000 Not Reported Not Reported
07/12/2019 05:40 PM 83.66 58.64 36.32 85.64 46.94 18.0 Not Reported 5.82 NW 2.01 SW 6.93 W No 0.000 No Precipitation 07/07/2019 05:02 PM 07/07/2019 05:07 PM 0.000 0.000 0.000 0.000 0.000 Not Reported Not Reported
07/12/2019 05:53 PM 83.66 58.82 37.40 85.64 46.94 19.0 Not Reported 4.70 W 5.14 NW 11.63 W No 0.000 No Precipitation 07/07/2019 05:02 PM 07/07/2019 05:07 PM 0.000 0.000 0.000 0.000 0.000 Not Reported Not Reported
07/12/2019 06:09 PM 82.76 57.92 35.60 85.64 46.94 18.0 Not Reported 5.59 SW 5.14 SE 7.61 W No 0.000 No Precipitation 07/07/2019 05:02 PM 07/07/2019 05:07 PM 0.000 0.000 0.000 0.000 0.000 Not Reported Not Reported
07/12/2019 06:25 PM 84.02 59.36 38.12 85.64 46.94 19.0 Not Reported 4.47 S 1.34 NW 9.84 NW No 0.000 No Precipitation 07/07/2019 05:02 PM 07/07/2019 05:07 PM 0.000 0.000 0.000 0.000 0.000 Not Reported Not Reported
07/12/2019 06:38 PM 82.94 59.00 39.02 85.64 46.94 20.0 Not Reported 5.14 SW 5.14 S 7.38 W No 0.000 No Precipitation 07/07/2019 05:02 PM 07/07/2019 05:07 PM 0.000 0.000 0.000 0.000 0.000 Not Reported Not Reported
07/12/2019 06:54 PM 83.12 60.08 41.90 85.64 46.94 23.0 Not Reported 2.24 NW 5.82 W 8.72 SW No 0.000 No Precipitation 07/07/2019 05:02 PM 07/07/2019 05:07 PM 0.000 0.000 0.000 0.000 0.000 Not Reported Not Reported
07/12/2019 07:08 PM 82.94 59.72 41.36 85.64 46.94 23.0 Not Reported 4.25 SW 2.46 SW 5.82 W No 0.000 No Precipitation 07/07/2019 05:02 PM 07/07/2019 05:07 PM 0.000 0.000 0.000 0.000 0.000 Not Reported Not Reported
07/12/2019 07:23 PM 81.86 59.90 42.80 85.64 46.94 25.0 Not Reported 4.70 NW 2.01 W 8.72 NW No 0.000 No Precipitation 07/07/2019 05:02 PM 07/07/2019 05:07 PM 0.000 0.000 0.000 0.000 0.000 Not Reported Not Reported
07/12/2019 07:38 PM 81.50 59.72 42.44 85.64 46.94 25.0 Not Reported 4.03 SW 2.01 W 8.95 S No 0.000 No Precipitation 07/07/2019 05:02 PM 07/07/2019 05:07 PM 0.000 0.000 0.000 0.000 0.000 Not Reported Not Reported
07/12/2019 07:53 PM 80.96 59.54 42.98 85.64 46.94 26.0 Not Reported 3.80 W 2.68 W 6.04 S No 0.000 No Precipitation 07/07/2019 05:02 PM 07/07/2019 05:07 PM 0.000 0.000 0.000 0.000 0.000 Not Reported Not Reported
07/12/2019 08:08 PM 79.16 59.18 43.34 85.64 46.94 28.0 Not Reported 3.13 NW 5.37 W 6.04 W No 0.000 No Precipitation 07/07/2019 05:02 PM 07/07/2019 05:07 PM 0.000 0.000 0.000 0.000 0.000 Not Reported Not Reported
07/12/2019 08:23 PM 77.54 58.82 44.42 85.64 46.94 30.0 Not Reported 3.36 SW 2.46 SW 8.50 W No 0.000 No Precipitation 07/07/2019 05:02 PM 07/07/2019 05:07 PM 0.000 0.000 0.000 0.000 0.000 Not Reported Not Reported
07/12/2019 08:38 PM 76.10 58.28 44.42 85.64 46.94 32.0 Not Reported 3.58 W 2.24 NW 6.49 NW No 0.000 No Precipitation 07/07/2019 05:02 PM 07/07/2019 05:07 PM 0.000 0.000 0.000 0.000 0.000 Not Reported Not Reported
07/12/2019 08:54 PM 71.78 57.56 46.76 85.64 46.94 40.0 Not Reported 2.01 NW 1.79 NW 5.59 W No 0.000 No Precipitation 07/07/2019 05:02 PM 07/07/2019 05:07 PM 0.000 0.000 0.000 0.000 0.000 Not Reported Not Reported
07/12/2019 09:08 PM 69.62 56.66 46.76 85.64 46.94 44.0 Not Reported 1.34 W 1.57 W 2.68 W No 0.000 No Precipitation 07/07/2019 05:02 PM 07/07/2019 05:07 PM 0.000 0.000 0.000 0.000 0.000 Not Reported Not Reported
07/12/2019 09:23 PM 70.16 56.66 45.86 85.64 46.94 41.0 Not Reported 2.01 W 1.34 SW 3.80 W No 0.000 No Precipitation 07/07/2019 05:02 PM 07/07/2019 05:07 PM 0.000 0.000 0.000 0.000 0.000 Not Reported Not Reported
07/12/2019 09:38 PM 67.64 55.76 46.22 85.64 46.94 46.0 Not Reported 1.34 NW 1.57 SW 2.24 W No 0.000 No Precipitation 07/07/2019 05:02 PM 07/07/2019 05:07 PM 0.000 0.000 0.000 0.000 0.000 Not Reported Not Reported
07/12/2019 09:53 PM 66.56 55.22 45.86 85.64 46.94 47.0 Not Reported 0.67 NW 0.89 N 3.58 W No 0.000 No Precipitation 07/07/2019 05:02 PM 07/07/2019 05:07 PM 0.000 0.000 0.000 0.000 0.000 Not Reported Not Reported
07/12/2019 10:09 PM 64.94 54.14 45.32 85.64 46.94 49.0 Not Reported 1.79 N 1.34 NE 2.01 NW No 0.000 No Precipitation 07/07/2019 05:02 PM 07/07/2019 05:07 PM 0.000 0.000 0.000 0.000 0.000 Not Reported Not Reported
07/12/2019 10:23 PM 64.76 54.50 46.22 85.64 46.94 51.0 Not Reported 0.89 NW 1.34 SW 2.24 NW No 0.000 No Precipitation 07/07/2019 05:02 PM 07/07/2019 05:07 PM 0.000 0.000 0.000 0.000 0.000 Not Reported Not Reported
07/12/2019 10:38 PM 62.96 53.78 46.22 85.64 46.94 54.0 Not Reported 1.12 W 0.89 W 1.57 W No 0.000 No Precipitation 07/07/2019 05:02 PM 07/07/2019 05:07 PM 0.000 0.000 0.000 0.000 0.000 Not Reported Not Reported
07/12/2019 10:55 PM 61.70 53.24 45.86 85.64 46.94 56.0 Not Reported 0.00 SW 0.00 SW 2.24 NW No 0.000 No Precipitation 07/07/2019 05:02 PM 07/07/2019 05:07 PM 0.000 0.000 0.000 0.000 0.000 Not Reported Not Reported
07/12/2019 11:10 PM 60.62 52.88 46.58 85.64 46.94 59.0 Not Reported 0.89 SW 0.89 SW 1.12 NW No 0.000 No Precipitation 07/07/2019 05:02 PM 07/07/2019 05:07 PM 0.000 0.000 0.000 0.000 0.000 Not Reported Not Reported
07/12/2019 11:23 PM 60.62 52.70 46.04 85.64 46.94 58.0 Not Reported 0.00 S 0.67 SE 1.12 SW No 0.000 No Precipitation 07/07/2019 05:02 PM 07/07/2019 05:07 PM 0.000 0.000 0.000 0.000 0.000 Not Reported Not Reported
07/12/2019 11:38 PM 58.82 51.80 46.04 85.64 46.94 62.0 Not Reported 0.00 N 0.00 N 0.67 SE No 0.000 No Precipitation 07/07/2019 05:02 PM 07/07/2019 05:07 PM 0.000 0.000 0.000 0.000 0.000 Not Reported Not Reported
07/12/2019 11:54 PM 58.10 51.98 46.94 85.64 46.94 66.0 Not Reported 0.00 N 0.00 NW 0.00 N No 0.000 No Precipitation 07/07/2019 05:02 PM 07/07/2019 05:07 PM 0.000 0.000 0.000 0.000 0.000 Not Reported Not Reported